sensor_id;sensor_type;location;lat;lon;timestamp;pressure;altitude;pressure_sealevel;temperature
69552;BMP280;63774;45.292;11.784;2023-09-12T00:01:04;101690.81;;;25.46
69552;BMP280;63774;45.292;11.784;2023-09-12T00:03:34;101687.32;;;25.45
69552;BMP280;63774;45.292;11.784;2023-09-12T00:06:01;101688.19;;;25.40
69552;BMP280;63774;45.292;11.784;2023-09-12T00:08:27;101685.92;;;25.40
69552;BMP280;63774;45.292;11.784;2023-09-12T00:11:06;101685.20;;;25.38
69552;BMP280;63774;45.292;11.784;2023-09-12T00:13:35;101685.20;;;25.35
69552;BMP280;63774;45.292;11.784;2023-09-12T00:16:01;101686.64;;;25.31
69552;BMP280;63774;45.292;11.784;2023-09-12T00:18:27;101687.99;;;25.33
69552;BMP280;63774;45.292;11.784;2023-09-12T00:20:52;101688.42;;;25.30
69552;BMP280;63774;45.292;11.784;2023-09-12T00:23:20;101688.15;;;25.26
69552;BMP280;63774;45.292;11.784;2023-09-12T00:25:45;101684.52;;;25.21
69552;BMP280;63774;45.292;11.784;2023-09-12T00:28:11;101683.40;;;25.17
69552;BMP280;63774;45.292;11.784;2023-09-12T00:30:36;101681.42;;;25.18
69552;BMP280;63774;45.292;11.784;2023-09-12T00:33:02;101681.33;;;25.20
69552;BMP280;63774;45.292;11.784;2023-09-12T00:35:27;101682.77;;;25.21
69552;BMP280;63774;45.292;11.784;2023-09-12T00:37:52;101683.79;;;25.21
69552;BMP280;63774;45.292;11.784;2023-09-12T00:40:18;101681.58;;;25.19
69552;BMP280;63774;45.292;11.784;2023-09-12T00:42:43;101681.20;;;25.19
69552;BMP280;63774;45.292;11.784;2023-09-12T00:45:09;101680.85;;;25.17
69552;BMP280;63774;45.292;11.784;2023-09-12T00:47:35;101680.26;;;25.17
69552;BMP280;63774;45.292;11.784;2023-09-12T00:50:02;101682.70;;;25.21
69552;BMP280;63774;45.292;11.784;2023-09-12T00:52:30;101681.07;;;25.23
69552;BMP280;63774;45.292;11.784;2023-09-12T00:54:56;101678.29;;;25.23
69552;BMP280;63774;45.292;11.784;2023-09-12T00:57:22;101675.50;;;25.23
69552;BMP280;63774;45.292;11.784;2023-09-12T00:59:49;101675.14;;;25.24
69552;BMP280;63774;45.292;11.784;2023-09-12T01:02:15;101675.82;;;25.20
69552;BMP280;63774;45.292;11.784;2023-09-12T01:04:42;101677.30;;;25.18
69552;BMP280;63774;45.292;11.784;2023-09-12T01:07:07;101677.91;;;25.22
69552;BMP280;63774;45.292;11.784;2023-09-12T01:09:33;101675.86;;;25.23
69552;BMP280;63774;45.292;11.784;2023-09-12T01:12:00;101676.38;;;25.25
69552;BMP280;63774;45.292;11.784;2023-09-12T01:14:28;101676.20;;;25.28
69552;BMP280;63774;45.292;11.784;2023-09-12T01:16:54;101674.53;;;25.28
69552;BMP280;63774;45.292;11.784;2023-09-12T01:19:20;101674.05;;;25.29
69552;BMP280;63774;45.292;11.784;2023-09-12T01:27:22;101677.46;;;25.25
69552;BMP280;63774;45.292;11.784;2023-09-12T01:29:56;101677.27;;;25.26
69552;BMP280;63774;45.292;11.784;2023-09-12T01:32:22;101674.78;;;25.24
69552;BMP280;63774;45.292;11.784;2023-09-12T01:34:48;101675.95;;;25.25
69552;BMP280;63774;45.292;11.784;2023-09-12T01:37:13;101678.38;;;25.23
69552;BMP280;63774;45.292;11.784;2023-09-12T01:39:40;101679.73;;;25.23
69552;BMP280;63774;45.292;11.784;2023-09-12T01:42:06;101675.67;;;25.23
69552;BMP280;63774;45.292;11.784;2023-09-12T01:44:35;101675.88;;;25.23
69552;BMP280;63774;45.292;11.784;2023-09-12T01:47:03;101672.66;;;25.22
69552;BMP280;63774;45.292;11.784;2023-09-12T01:49:31;101676.59;;;25.22
69552;BMP280;63774;45.292;11.784;2023-09-12T01:51:58;101675.02;;;25.21
69552;BMP280;63774;45.292;11.784;2023-09-12T01:54:26;101677.77;;;25.22
69552;BMP280;63774;45.292;11.784;2023-09-12T01:56:53;101678.58;;;25.21
69552;BMP280;63774;45.292;11.784;2023-09-12T01:59:23;101679.00;;;25.20
69552;BMP280;63774;45.292;11.784;2023-09-12T02:01:48;101681.44;;;25.19
69552;BMP280;63774;45.292;11.784;2023-09-12T02:04:14;101682.91;;;25.18
69552;BMP280;63774;45.292;11.784;2023-09-12T02:06:39;101675.77;;;25.17
69552;BMP280;63774;45.292;11.784;2023-09-12T02:09:04;101680.16;;;25.19
69552;BMP280;63774;45.292;11.784;2023-09-12T02:11:30;101680.67;;;25.18
69552;BMP280;63774;45.292;11.784;2023-09-12T02:13:55;101680.23;;;25.15
69552;BMP280;63774;45.292;11.784;2023-09-12T02:16:21;101680.63;;;25.14
69552;BMP280;63774;45.292;11.784;2023-09-12T02:18:46;101679.79;;;25.16
69552;BMP280;63774;45.292;11.784;2023-09-12T02:21:11;101680.39;;;25.18
69552;BMP280;63774;45.292;11.784;2023-09-12T02:23:37;101676.29;;;25.14
69552;BMP280;63774;45.292;11.784;2023-09-12T02:26:02;101678.98;;;25.14
69552;BMP280;63774;45.292;11.784;2023-09-12T02:28:28;101677.66;;;25.13
69552;BMP280;63774;45.292;11.784;2023-09-12T02:30:53;101679.05;;;25.12
69552;BMP280;63774;45.292;11.784;2023-09-12T02:33:19;101681.97;;;25.15
69552;BMP280;63774;45.292;11.784;2023-09-12T02:35:44;101682.66;;;25.16
69552;BMP280;63774;45.292;11.784;2023-09-12T02:38:09;101682.23;;;25.14
69552;BMP280;63774;45.292;11.784;2023-09-12T02:40:35;101683.66;;;25.13
69552;BMP280;63774;45.292;11.784;2023-09-12T02:43:00;101688.98;;;25.13
69552;BMP280;63774;45.292;11.784;2023-09-12T02:45:26;101689.74;;;25.13
69552;BMP280;63774;45.292;11.784;2023-09-12T02:47:51;101690.08;;;25.13
69552;BMP280;63774;45.292;11.784;2023-09-12T02:50:16;101687.21;;;25.12
69552;BMP280;63774;45.292;11.784;2023-09-12T02:52:42;101686.08;;;25.12
69552;BMP280;63774;45.292;11.784;2023-09-12T02:55:07;101685.47;;;25.13
69552;BMP280;63774;45.292;11.784;2023-09-12T02:57:33;101683.33;;;25.11
69552;BMP280;63774;45.292;11.784;2023-09-12T02:59:58;101686.19;;;25.11
69552;BMP280;63774;45.292;11.784;2023-09-12T03:02:24;101684.25;;;25.09
69552;BMP280;63774;45.292;11.784;2023-09-12T03:04:50;101688.67;;;25.09
69552;BMP280;63774;45.292;11.784;2023-09-12T03:07:15;101685.97;;;25.08
69552;BMP280;63774;45.292;11.784;2023-09-12T03:09:41;101685.39;;;25.05
69552;BMP280;63774;45.292;11.784;2023-09-12T03:12:06;101684.51;;;25.07
69552;BMP280;63774;45.292;11.784;2023-09-12T03:14:32;101682.21;;;25.04
69552;BMP280;63774;45.292;11.784;2023-09-12T03:16:57;101684.70;;;25.07
69552;BMP280;63774;45.292;11.784;2023-09-12T03:19:23;101685.21;;;25.06
69552;BMP280;63774;45.292;11.784;2023-09-12T03:21:48;101685.66;;;25.05
69552;BMP280;63774;45.292;11.784;2023-09-12T03:24:14;101681.98;;;25.01
69552;BMP280;63774;45.292;11.784;2023-09-12T03:26:39;101683.02;;;25.01
69552;BMP280;63774;45.292;11.784;2023-09-12T03:29:05;101679.01;;;25.02
69552;BMP280;63774;45.292;11.784;2023-09-12T03:31:30;101679.91;;;25.01
69552;BMP280;63774;45.292;11.784;2023-09-12T03:33:56;101678.39;;;25.00
69552;BMP280;63774;45.292;11.784;2023-09-12T03:36:21;101677.11;;;25.00
69552;BMP280;63774;45.292;11.784;2023-09-12T03:38:47;101675.78;;;25.01
69552;BMP280;63774;45.292;11.784;2023-09-12T03:41:12;101674.86;;;25.02
69552;BMP280;63774;45.292;11.784;2023-09-12T03:43:38;101673.00;;;25.01
69552;BMP280;63774;45.292;11.784;2023-09-12T03:46:03;101673.16;;;25.00
69552;BMP280;63774;45.292;11.784;2023-09-12T03:48:33;101675.91;;;24.98
69552;BMP280;63774;45.292;11.784;2023-09-12T03:50:59;101675.35;;;24.99
69552;BMP280;63774;45.292;11.784;2023-09-12T03:53:24;101678.61;;;24.97
69552;BMP280;63774;45.292;11.784;2023-09-12T03:55:52;101679.30;;;24.96
69552;BMP280;63774;45.292;11.784;2023-09-12T03:58:17;101677.04;;;24.94
69552;BMP280;63774;45.292;11.784;2023-09-12T04:00:42;101678.70;;;24.90
69552;BMP280;63774;45.292;11.784;2023-09-12T04:03:09;101678.41;;;24.88
69552;BMP280;63774;45.292;11.784;2023-09-12T04:05:34;101677.08;;;24.86
69552;BMP280;63774;45.292;11.784;2023-09-12T04:08:00;101681.46;;;24.84
69552;BMP280;63774;45.292;11.784;2023-09-12T04:10:25;101683.63;;;24.83
69552;BMP280;63774;45.292;11.784;2023-09-12T04:12:51;101685.80;;;24.82
69552;BMP280;63774;45.292;11.784;2023-09-12T04:15:16;101686.41;;;24.81
69552;BMP280;63774;45.292;11.784;2023-09-12T04:17:42;101689.17;;;24.80
69552;BMP280;63774;45.292;11.784;2023-09-12T04:20:07;101692.38;;;24.82
69552;BMP280;63774;45.292;11.784;2023-09-12T04:22:33;101695.40;;;24.80
69552;BMP280;63774;45.292;11.784;2023-09-12T04:24:59;101695.27;;;24.79
69552;BMP280;63774;45.292;11.784;2023-09-12T04:27:24;101695.33;;;24.82
69552;BMP280;63774;45.292;11.784;2023-09-12T04:29:49;101694.14;;;24.81
69552;BMP280;63774;45.292;11.784;2023-09-12T04:32:15;101694.64;;;24.79
69552;BMP280;63774;45.292;11.784;2023-09-12T04:34:45;101695.29;;;24.79
69552;BMP280;63774;45.292;11.784;2023-09-12T04:37:10;101695.82;;;24.80
69552;BMP280;63774;45.292;11.784;2023-09-12T04:39:35;101695.38;;;24.79
69552;BMP280;63774;45.292;11.784;2023-09-12T04:42:01;101698.90;;;24.80
69552;BMP280;63774;45.292;11.784;2023-09-12T04:44:26;101696.92;;;24.81
69552;BMP280;63774;45.292;11.784;2023-09-12T04:46:51;101696.92;;;24.80
69552;BMP280;63774;45.292;11.784;2023-09-12T04:49:17;101695.92;;;24.78
69552;BMP280;63774;45.292;11.784;2023-09-12T04:51:42;101699.47;;;24.78
69552;BMP280;63774;45.292;11.784;2023-09-12T04:54:08;101700.16;;;24.77
69552;BMP280;63774;45.292;11.784;2023-09-12T04:56:33;101703.86;;;24.76
69552;BMP280;63774;45.292;11.784;2023-09-12T04:58:58;101707.47;;;24.76
69552;BMP280;63774;45.292;11.784;2023-09-12T05:01:24;101703.80;;;24.75
69552;BMP280;63774;45.292;11.784;2023-09-12T05:03:51;101707.00;;;24.75
69552;BMP280;63774;45.292;11.784;2023-09-12T05:06:16;101706.17;;;24.74
69552;BMP280;63774;45.292;11.784;2023-09-12T05:08:42;101709.41;;;24.73
69552;BMP280;63774;45.292;11.784;2023-09-12T05:11:07;101708.23;;;24.72
69552;BMP280;63774;45.292;11.784;2023-09-12T05:13:32;101708.61;;;24.72
69552;BMP280;63774;45.292;11.784;2023-09-12T05:15:58;101711.18;;;24.74
69552;BMP280;63774;45.292;11.784;2023-09-12T05:18:24;101712.02;;;24.76
69552;BMP280;63774;45.292;11.784;2023-09-12T05:20:49;101716.32;;;24.74
69552;BMP280;63774;45.292;11.784;2023-09-12T05:23:15;101716.66;;;24.72
69552;BMP280;63774;45.292;11.784;2023-09-12T05:25:40;101720.36;;;24.70
69552;BMP280;63774;45.292;11.784;2023-09-12T05:28:06;101722.98;;;24.71
69552;BMP280;63774;45.292;11.784;2023-09-12T05:30:32;101725.88;;;24.71
69552;BMP280;63774;45.292;11.784;2023-09-12T05:32:58;101727.87;;;24.70
69552;BMP280;63774;45.292;11.784;2023-09-12T05:35:23;101729.45;;;24.68
69552;BMP280;63774;45.292;11.784;2023-09-12T05:37:50;101729.41;;;24.66
69552;BMP280;63774;45.292;11.784;2023-09-12T05:40:15;101730.00;;;24.65
69552;BMP280;63774;45.292;11.784;2023-09-12T05:42:41;101729.26;;;24.66
69552;BMP280;63774;45.292;11.784;2023-09-12T05:45:06;101735.05;;;24.68
69552;BMP280;63774;45.292;11.784;2023-09-12T05:47:32;101734.41;;;24.66
69552;BMP280;63774;45.292;11.784;2023-09-12T05:49:57;101735.73;;;24.69
69552;BMP280;63774;45.292;11.784;2023-09-12T05:52:25;101736.25;;;24.67
69552;BMP280;63774;45.292;11.784;2023-09-12T05:54:50;101737.10;;;24.69
69552;BMP280;63774;45.292;11.784;2023-09-12T05:57:15;101740.92;;;24.69
69552;BMP280;63774;45.292;11.784;2023-09-12T05:59:41;101740.87;;;24.69
69552;BMP280;63774;45.292;11.784;2023-09-12T06:02:07;101743.27;;;24.71
69552;BMP280;63774;45.292;11.784;2023-09-12T06:04:35;101741.92;;;24.70
69552;BMP280;63774;45.292;11.784;2023-09-12T06:07:02;101742.89;;;24.69
69552;BMP280;63774;45.292;11.784;2023-09-12T06:09:28;101747.05;;;24.75
69552;BMP280;63774;45.292;11.784;2023-09-12T06:11:54;101748.61;;;24.75
69552;BMP280;63774;45.292;11.784;2023-09-12T06:14:19;101752.94;;;24.76
69552;BMP280;63774;45.292;11.784;2023-09-12T06:16:44;101756.61;;;24.74
69552;BMP280;63774;45.292;11.784;2023-09-12T06:19:10;101758.94;;;24.77
69552;BMP280;63774;45.292;11.784;2023-09-12T06:21:35;101759.91;;;24.79
69552;BMP280;63774;45.292;11.784;2023-09-12T06:26:34;101762.86;;;24.81
69552;BMP280;63774;45.292;11.784;2023-09-12T06:29:00;101764.96;;;24.82
69552;BMP280;63774;45.292;11.784;2023-09-12T06:31:25;101767.11;;;24.83
69552;BMP280;63774;45.292;11.784;2023-09-12T06:33:50;101770.27;;;24.84
69552;BMP280;63774;45.292;11.784;2023-09-12T06:36:16;101773.29;;;24.85
69552;BMP280;63774;45.292;11.784;2023-09-12T06:38:41;101773.27;;;24.88
69552;BMP280;63774;45.292;11.784;2023-09-12T06:41:06;101769.91;;;24.89
69552;BMP280;63774;45.292;11.784;2023-09-12T06:43:32;101763.70;;;24.89
69552;BMP280;63774;45.292;11.784;2023-09-12T06:45:57;101762.21;;;24.90
69552;BMP280;63774;45.292;11.784;2023-09-12T06:48:23;101765.54;;;24.90
69552;BMP280;63774;45.292;11.784;2023-09-12T06:50:48;101767.20;;;24.91
69552;BMP280;63774;45.292;11.784;2023-09-12T06:53:15;101772.47;;;24.92
69552;BMP280;63774;45.292;11.784;2023-09-12T06:55:41;101778.02;;;24.94
69552;BMP280;63774;45.292;11.784;2023-09-12T06:58:06;101781.91;;;24.93
69552;BMP280;63774;45.292;11.784;2023-09-12T07:00:33;101784.25;;;24.94
69552;BMP280;63774;45.292;11.784;2023-09-12T07:02:58;101787.05;;;24.94
69552;BMP280;63774;45.292;11.784;2023-09-12T07:05:24;101785.00;;;24.94
69552;BMP280;63774;45.292;11.784;2023-09-12T07:07:49;101787.08;;;24.97
69552;BMP280;63774;45.292;11.784;2023-09-12T07:10:15;101788.48;;;24.98
69552;BMP280;63774;45.292;11.784;2023-09-12T07:12:40;101788.29;;;25.00
69552;BMP280;63774;45.292;11.784;2023-09-12T07:15:06;101788.61;;;25.02
69552;BMP280;63774;45.292;11.784;2023-09-12T07:17:31;101795.95;;;25.04
69552;BMP280;63774;45.292;11.784;2023-09-12T07:19:57;101799.64;;;25.06
69552;BMP280;63774;45.292;11.784;2023-09-12T07:22:23;101799.70;;;25.08
69552;BMP280;63774;45.292;11.784;2023-09-12T07:24:48;101801.17;;;25.11
69552;BMP280;63774;45.292;11.784;2023-09-12T07:27:13;101802.69;;;25.13
69552;BMP280;63774;45.292;11.784;2023-09-12T07:29:39;101803.13;;;25.17
69552;BMP280;63774;45.292;11.784;2023-09-12T07:32:04;101803.12;;;25.20
69552;BMP280;63774;45.292;11.784;2023-09-12T07:34:30;101803.89;;;25.20
69552;BMP280;63774;45.292;11.784;2023-09-12T07:36:55;101806.58;;;25.23
69552;BMP280;63774;45.292;11.784;2023-09-12T07:39:21;101806.89;;;25.26
69552;BMP280;63774;45.292;11.784;2023-09-12T07:41:47;101806.77;;;25.29
69552;BMP280;63774;45.292;11.784;2023-09-12T07:44:12;101805.81;;;25.33
69552;BMP280;63774;45.292;11.784;2023-09-12T07:46:40;101806.99;;;25.37
69552;BMP280;63774;45.292;11.784;2023-09-12T07:49:06;101808.06;;;25.40
69552;BMP280;63774;45.292;11.784;2023-09-12T07:51:33;101810.11;;;25.41
69552;BMP280;63774;45.292;11.784;2023-09-12T07:53:59;101811.99;;;25.44
69552;BMP280;63774;45.292;11.784;2023-09-12T07:56:24;101811.86;;;25.45
69552;BMP280;63774;45.292;11.784;2023-09-12T07:58:49;101811.70;;;25.48
69552;BMP280;63774;45.292;11.784;2023-09-12T08:01:15;101811.77;;;25.51
69552;BMP280;63774;45.292;11.784;2023-09-12T08:03:42;101810.31;;;25.52
69552;BMP280;63774;45.292;11.784;2023-09-12T08:06:07;101814.54;;;25.55
69552;BMP280;63774;45.292;11.784;2023-09-12T08:08:34;101815.94;;;25.57
69552;BMP280;63774;45.292;11.784;2023-09-12T08:11:00;101821.71;;;25.61
69552;BMP280;63774;45.292;11.784;2023-09-12T08:13:26;101824.65;;;25.63
69552;BMP280;63774;45.292;11.784;2023-09-12T08:15:56;101822.92;;;25.67
69552;BMP280;63774;45.292;11.784;2023-09-12T08:18:25;101825.32;;;25.72
69552;BMP280;63774;45.292;11.784;2023-09-12T08:20:51;101829.60;;;25.76
69552;BMP280;63774;45.292;11.784;2023-09-12T08:23:16;101826.14;;;25.79
69552;BMP280;63774;45.292;11.784;2023-09-12T08:25:42;101827.61;;;25.83
69552;BMP280;63774;45.292;11.784;2023-09-12T08:28:07;101823.63;;;25.85
69552;BMP280;63774;45.292;11.784;2023-09-12T08:30:33;101819.23;;;25.87
69552;BMP280;63774;45.292;11.784;2023-09-12T08:32:58;101815.05;;;25.89
69552;BMP280;63774;45.292;11.784;2023-09-12T08:35:24;101819.55;;;25.92
69552;BMP280;63774;45.292;11.784;2023-09-12T08:37:51;101820.77;;;25.94
69552;BMP280;63774;45.292;11.784;2023-09-12T08:40:17;101821.14;;;25.96
69552;BMP280;63774;45.292;11.784;2023-09-12T08:42:44;101821.68;;;25.99
69552;BMP280;63774;45.292;11.784;2023-09-12T08:45:13;101820.85;;;25.99
69552;BMP280;63774;45.292;11.784;2023-09-12T08:47:50;101823.29;;;26.03
69552;BMP280;63774;45.292;11.784;2023-09-12T08:50:17;101824.70;;;26.05
69552;BMP280;63774;45.292;11.784;2023-09-12T08:52:44;101823.50;;;26.05
69552;BMP280;63774;45.292;11.784;2023-09-12T08:55:10;101824.41;;;26.06
69552;BMP280;63774;45.292;11.784;2023-09-12T08:57:38;101825.09;;;26.08
69552;BMP280;63774;45.292;11.784;2023-09-12T09:00:04;101821.80;;;26.09
69552;BMP280;63774;45.292;11.784;2023-09-12T09:02:38;101822.55;;;26.10
69552;BMP280;63774;45.292;11.784;2023-09-12T09:05:04;101822.95;;;26.12
69552;BMP280;63774;45.292;11.784;2023-09-12T09:07:38;101825.17;;;26.14
69552;BMP280;63774;45.292;11.784;2023-09-12T09:10:05;101823.33;;;26.14
69552;BMP280;63774;45.292;11.784;2023-09-12T09:12:32;101824.08;;;26.16
69552;BMP280;63774;45.292;11.784;2023-09-12T09:14:57;101820.06;;;26.16
69552;BMP280;63774;45.292;11.784;2023-09-12T09:17:23;101816.33;;;26.16
69552;BMP280;63774;45.292;11.784;2023-09-12T09:19:49;101816.66;;;26.17
69552;BMP280;63774;45.292;11.784;2023-09-12T09:22:14;101820.58;;;26.18
69552;BMP280;63774;45.292;11.784;2023-09-12T09:24:40;101822.79;;;26.19
69552;BMP280;63774;45.292;11.784;2023-09-12T09:27:05;101825.10;;;26.19
69552;BMP280;63774;45.292;11.784;2023-09-12T09:29:30;101823.73;;;26.20
69552;BMP280;63774;45.292;11.784;2023-09-12T09:32:02;101825.72;;;26.21
69552;BMP280;63774;45.292;11.784;2023-09-12T09:34:30;101822.91;;;26.20
69552;BMP280;63774;45.292;11.784;2023-09-12T09:36:57;101819.41;;;26.22
69552;BMP280;63774;45.292;11.784;2023-09-12T09:39:27;101821.13;;;26.24
69552;BMP280;63774;45.292;11.784;2023-09-12T09:41:57;101817.23;;;26.24
69552;BMP280;63774;45.292;11.784;2023-09-12T09:44:24;101812.15;;;26.25
69552;BMP280;63774;45.292;11.784;2023-09-12T09:46:58;101813.12;;;26.26
69552;BMP280;63774;45.292;11.784;2023-09-12T09:49:30;101810.28;;;26.25
69552;BMP280;63774;45.292;11.784;2023-09-12T09:51:56;101812.38;;;26.28
69552;BMP280;63774;45.292;11.784;2023-09-12T09:54:25;101816.95;;;26.28
69552;BMP280;63774;45.292;11.784;2023-09-12T09:56:55;101815.59;;;26.29
69552;BMP280;63774;45.292;11.784;2023-09-12T09:59:22;101811.89;;;26.30
69552;BMP280;63774;45.292;11.784;2023-09-12T10:01:49;101805.80;;;26.30
69552;BMP280;63774;45.292;11.784;2023-09-12T10:04:17;101802.25;;;26.30
69552;BMP280;63774;45.292;11.784;2023-09-12T10:06:45;101806.71;;;26.32
69552;BMP280;63774;45.292;11.784;2023-09-12T10:09:14;101806.78;;;26.32
69552;BMP280;63774;45.292;11.784;2023-09-12T10:11:43;101801.09;;;26.32
69552;BMP280;63774;45.292;11.784;2023-09-12T10:14:09;101800.81;;;26.33
69552;BMP280;63774;45.292;11.784;2023-09-12T10:16:47;101801.77;;;26.34
69552;BMP280;63774;45.292;11.784;2023-09-12T10:19:25;101795.27;;;26.33
69552;BMP280;63774;45.292;11.784;2023-09-12T10:22:09;101791.34;;;26.34
69552;BMP280;63774;45.292;11.784;2023-09-12T10:24:36;101787.30;;;26.36
69552;BMP280;63774;45.292;11.784;2023-09-12T10:27:03;101788.98;;;26.37
69552;BMP280;63774;45.292;11.784;2023-09-12T10:29:31;101784.72;;;26.38
69552;BMP280;63774;45.292;11.784;2023-09-12T10:31:56;101783.05;;;26.41
69552;BMP280;63774;45.292;11.784;2023-09-12T10:34:24;101777.75;;;26.41
69552;BMP280;63774;45.292;11.784;2023-09-12T10:36:50;101775.78;;;26.43
69552;BMP280;63774;45.292;11.784;2023-09-12T10:39:19;101775.73;;;26.44
69552;BMP280;63774;45.292;11.784;2023-09-12T10:41:46;101771.17;;;26.44
69552;BMP280;63774;45.292;11.784;2023-09-12T10:44:16;101766.64;;;26.43
69552;BMP280;63774;45.292;11.784;2023-09-12T10:46:42;101766.11;;;26.44
69552;BMP280;63774;45.292;11.784;2023-09-12T10:49:09;101760.91;;;26.44
69552;BMP280;63774;45.292;11.784;2023-09-12T10:51:42;101763.38;;;26.44
69552;BMP280;63774;45.292;11.784;2023-09-12T10:54:09;101765.27;;;26.45
69552;BMP280;63774;45.292;11.784;2023-09-12T10:56:37;101764.21;;;26.46
69552;BMP280;63774;45.292;11.784;2023-09-12T11:01:37;101762.05;;;26.47
69552;BMP280;63774;45.292;11.784;2023-09-12T11:04:30;101761.00;;;26.47
69552;BMP280;63774;45.292;11.784;2023-09-12T11:06:58;101765.66;;;26.50
69552;BMP280;63774;45.292;11.784;2023-09-12T11:09:24;101761.36;;;26.50
69552;BMP280;63774;45.292;11.784;2023-09-12T11:14:18;101755.32;;;26.51
69552;BMP280;63774;45.292;11.784;2023-09-12T11:19:46;101751.66;;;26.54
69552;BMP280;63774;45.292;11.784;2023-09-12T11:22:29;101746.96;;;26.53
69552;BMP280;63774;45.292;11.784;2023-09-12T11:24:56;101740.36;;;26.52
69552;BMP280;63774;45.292;11.784;2023-09-12T11:27:24;101746.38;;;26.53
69552;BMP280;63774;45.292;11.784;2023-09-12T11:29:50;101743.05;;;26.54
69552;BMP280;63774;45.292;11.784;2023-09-12T11:32:27;101746.05;;;26.54
69552;BMP280;63774;45.292;11.784;2023-09-12T11:34:55;101740.94;;;26.54
69552;BMP280;63774;45.292;11.784;2023-09-12T11:37:25;101742.55;;;26.54
69552;BMP280;63774;45.292;11.784;2023-09-12T11:39:52;101735.70;;;26.53
69552;BMP280;63774;45.292;11.784;2023-09-12T11:42:18;101736.27;;;26.55
69552;BMP280;63774;45.292;11.784;2023-09-12T11:44:44;101732.88;;;26.56
69552;BMP280;63774;45.292;11.784;2023-09-12T11:47:12;101732.68;;;26.57
69552;BMP280;63774;45.292;11.784;2023-09-12T11:49:39;101733.02;;;26.57
69552;BMP280;63774;45.292;11.784;2023-09-12T11:52:13;101735.55;;;26.58
69552;BMP280;63774;45.292;11.784;2023-09-12T11:54:43;101734.58;;;26.58
69552;BMP280;63774;45.292;11.784;2023-09-12T11:57:12;101732.95;;;26.59
69552;BMP280;63774;45.292;11.784;2023-09-12T11:59:40;101728.61;;;26.60
69552;BMP280;63774;45.292;11.784;2023-09-12T12:02:07;101729.15;;;26.62
69552;BMP280;63774;45.292;11.784;2023-09-12T12:04:34;101722.54;;;26.62
69552;BMP280;63774;45.292;11.784;2023-09-12T12:07:00;101723.65;;;26.63
69552;BMP280;63774;45.292;11.784;2023-09-12T12:09:27;101724.70;;;26.64
69552;BMP280;63774;45.292;11.784;2023-09-12T12:11:52;101722.91;;;26.65
69552;BMP280;63774;45.292;11.784;2023-09-12T12:14:18;101718.25;;;26.65
69552;BMP280;63774;45.292;11.784;2023-09-12T12:16:46;101714.33;;;26.65
69552;BMP280;63774;45.292;11.784;2023-09-12T12:19:12;101713.65;;;26.67
69552;BMP280;63774;45.292;11.784;2023-09-12T12:21:42;101712.90;;;26.67
69552;BMP280;63774;45.292;11.784;2023-09-12T12:24:10;101713.74;;;26.66
69552;BMP280;63774;45.292;11.784;2023-09-12T12:26:37;101712.41;;;26.66
69552;BMP280;63774;45.292;11.784;2023-09-12T12:29:04;101708.80;;;26.68
69552;BMP280;63774;45.292;11.784;2023-09-12T12:31:30;101705.04;;;26.67
69552;BMP280;63774;45.292;11.784;2023-09-12T12:33:56;101703.85;;;26.69
69552;BMP280;63774;45.292;11.784;2023-09-12T12:36:23;101697.66;;;26.68
69552;BMP280;63774;45.292;11.784;2023-09-12T12:38:49;101700.36;;;26.69
69552;BMP280;63774;45.292;11.784;2023-09-12T12:41:16;101699.95;;;26.68
69552;BMP280;63774;45.292;11.784;2023-09-12T12:43:43;101695.33;;;26.69
69552;BMP280;63774;45.292;11.784;2023-09-12T12:46:12;101694.52;;;26.71
69552;BMP280;63774;45.292;11.784;2023-09-12T12:48:38;101690.33;;;26.73
69552;BMP280;63774;45.292;11.784;2023-09-12T12:51:17;101689.60;;;26.73
69552;BMP280;63774;45.292;11.784;2023-09-12T12:53:45;101689.86;;;26.76
69552;BMP280;63774;45.292;11.784;2023-09-12T12:56:15;101688.58;;;26.76
69552;BMP280;63774;45.292;11.784;2023-09-12T12:58:46;101683.73;;;26.76
69552;BMP280;63774;45.292;11.784;2023-09-12T13:01:12;101682.98;;;26.77
69552;BMP280;63774;45.292;11.784;2023-09-12T13:03:37;101681.48;;;26.76
69552;BMP280;63774;45.292;11.784;2023-09-12T13:06:03;101680.26;;;26.77
69552;BMP280;63774;45.292;11.784;2023-09-12T13:08:28;101679.60;;;26.76
69552;BMP280;63774;45.292;11.784;2023-09-12T13:10:54;101675.42;;;26.77
69552;BMP280;63774;45.292;11.784;2023-09-12T13:13:19;101676.20;;;26.77
69552;BMP280;63774;45.292;11.784;2023-09-12T13:15:45;101670.98;;;26.77
69552;BMP280;63774;45.292;11.784;2023-09-12T13:18:10;101670.15;;;26.79
69552;BMP280;63774;45.292;11.784;2023-09-12T13:20:36;101670.35;;;26.78
69552;BMP280;63774;45.292;11.784;2023-09-12T13:23:01;101667.19;;;26.78
69552;BMP280;63774;45.292;11.784;2023-09-12T13:25:27;101664.63;;;26.77
69552;BMP280;63774;45.292;11.784;2023-09-12T13:27:52;101664.29;;;26.78
69552;BMP280;63774;45.292;11.784;2023-09-12T13:30:18;101659.52;;;26.77
69552;BMP280;63774;45.292;11.784;2023-09-12T13:32:43;101657.55;;;26.79
69552;BMP280;63774;45.292;11.784;2023-09-12T13:35:10;101656.35;;;26.79
69552;BMP280;63774;45.292;11.784;2023-09-12T13:37:36;101653.08;;;26.79
69552;BMP280;63774;45.292;11.784;2023-09-12T13:40:01;101653.38;;;26.79
69552;BMP280;63774;45.292;11.784;2023-09-12T13:42:28;101651.64;;;26.80
69552;BMP280;63774;45.292;11.784;2023-09-12T13:44:56;101649.88;;;26.81
69552;BMP280;63774;45.292;11.784;2023-09-12T13:47:21;101651.02;;;26.80
69552;BMP280;63774;45.292;11.784;2023-09-12T13:49:48;101650.88;;;26.80
69552;BMP280;63774;45.292;11.784;2023-09-12T13:52:14;101649.38;;;26.80
69552;BMP280;63774;45.292;11.784;2023-09-12T13:54:42;101647.33;;;26.81
69552;BMP280;63774;45.292;11.784;2023-09-12T13:57:07;101644.02;;;26.80